sensor_id;sensor_type;location;lat;lon;timestamp;P1;durP1;ratioP1;P2;durP2;ratioP2
57337;SDS011;43173;50.980;18.204;2023-05-10T00:01:23;6.90;;;4.40;;
57337;SDS011;43173;50.980;18.204;2023-05-10T00:03:48;10.50;;;4.90;;
57337;SDS011;43173;50.980;18.204;2023-05-10T00:06:14;7.40;;;4.50;;
57337;SDS011;43173;50.980;18.204;2023-05-10T00:08:40;8.60;;;4.90;;
57337;SDS011;43173;50.980;18.204;2023-05-10T00:11:05;6.80;;;5.00;;
57337;SDS011;43173;50.980;18.204;2023-05-10T00:13:31;7.20;;;5.00;;
57337;SDS011;43173;50.980;18.204;2023-05-10T00:15:57;8.50;;;4.70;;
57337;SDS011;43173;50.980;18.204;2023-05-10T00:18:23;10.10;;;5.10;;
57337;SDS011;43173;50.980;18.204;2023-05-10T00:20:48;8.10;;;5.00;;
57337;SDS011;43173;50.980;18.204;2023-05-10T00:23:14;8.20;;;4.90;;
57337;SDS011;43173;50.980;18.204;2023-05-10T00:25:40;9.40;;;5.40;;
57337;SDS011;43173;50.980;18.204;2023-05-10T00:28:06;8.60;;;4.80;;
57337;SDS011;43173;50.980;18.204;2023-05-10T00:30:31;8.10;;;4.80;;
57337;SDS011;43173;50.980;18.204;2023-05-10T00:32:57;7.70;;;4.60;;
57337;SDS011;43173;50.980;18.204;2023-05-10T00:35:22;10.50;;;4.90;;
57337;SDS011;43173;50.980;18.204;2023-05-10T00:37:48;10.50;;;5.00;;
57337;SDS011;43173;50.980;18.204;2023-05-10T00:40:14;10.20;;;4.90;;
57337;SDS011;43173;50.980;18.204;2023-05-10T00:42:40;9.00;;;4.80;;
57337;SDS011;43173;50.980;18.204;2023-05-10T00:45:06;8.70;;;4.80;;
57337;SDS011;43173;50.980;18.204;2023-05-10T00:47:32;8.70;;;5.00;;
57337;SDS011;43173;50.980;18.204;2023-05-10T00:49:58;8.70;;;4.60;;
57337;SDS011;43173;50.980;18.204;2023-05-10T00:52:26;10.50;;;5.30;;
57337;SDS011;43173;50.980;18.204;2023-05-10T00:54:53;8.50;;;4.80;;
57337;SDS011;43173;50.980;18.204;2023-05-10T00:57:19;9.50;;;4.20;;
57337;SDS011;43173;50.980;18.204;2023-05-10T00:59:45;9.60;;;5.10;;
57337;SDS011;43173;50.980;18.204;2023-05-10T01:02:11;9.50;;;4.70;;
57337;SDS011;43173;50.980;18.204;2023-05-10T01:04:38;7.70;;;4.70;;
57337;SDS011;43173;50.980;18.204;2023-05-10T01:07:04;8.90;;;4.60;;
57337;SDS011;43173;50.980;18.204;2023-05-10T01:09:30;7.20;;;4.20;;
57337;SDS011;43173;50.980;18.204;2023-05-10T01:11:56;8.00;;;4.90;;
57337;SDS011;43173;50.980;18.204;2023-05-10T01:14:22;10.50;;;4.50;;
57337;SDS011;43173;50.980;18.204;2023-05-10T01:16:48;10.00;;;4.90;;
57337;SDS011;43173;50.980;18.204;2023-05-10T01:19:48;8.60;;;4.40;;
57337;SDS011;43173;50.980;18.204;2023-05-10T01:35:52;7.70;;;4.70;;
57337;SDS011;43173;50.980;18.204;2023-05-10T01:38:29;8.10;;;4.70;;
57337;SDS011;43173;50.980;18.204;2023-05-10T01:49:02;10.50;;;4.50;;
57337;SDS011;43173;50.980;18.204;2023-05-10T01:51:31;6.40;;;4.40;;
57337;SDS011;43173;50.980;18.204;2023-05-10T01:54:02;8.40;;;4.50;;
57337;SDS011;43173;50.980;18.204;2023-05-10T01:56:29;9.70;;;4.90;;
57337;SDS011;43173;50.980;18.204;2023-05-10T01:58:56;6.70;;;4.70;;
57337;SDS011;43173;50.980;18.204;2023-05-10T02:01:22;8.60;;;4.40;;
57337;SDS011;43173;50.980;18.204;2023-05-10T02:03:48;7.40;;;4.40;;
57337;SDS011;43173;50.980;18.204;2023-05-10T02:06:15;9.40;;;4.90;;
57337;SDS011;43173;50.980;18.204;2023-05-10T02:08:42;8.90;;;4.40;;
57337;SDS011;43173;50.980;18.204;2023-05-10T02:11:08;7.20;;;4.40;;
57337;SDS011;43173;50.980;18.204;2023-05-10T02:13:34;11.50;;;5.20;;
57337;SDS011;43173;50.980;18.204;2023-05-10T02:16:02;8.90;;;5.00;;
57337;SDS011;43173;50.980;18.204;2023-05-10T02:18:28;7.60;;;4.30;;
57337;SDS011;43173;50.980;18.204;2023-05-10T02:20:55;9.90;;;4.50;;
57337;SDS011;43173;50.980;18.204;2023-05-10T02:23:21;7.80;;;4.80;;
57337;SDS011;43173;50.980;18.204;2023-05-10T02:25:49;8.20;;;5.40;;
57337;SDS011;43173;50.980;18.204;2023-05-10T02:28:15;9.10;;;4.60;;
57337;SDS011;43173;50.980;18.204;2023-05-10T02:30:42;8.40;;;5.20;;
57337;SDS011;43173;50.980;18.204;2023-05-10T02:33:08;7.50;;;4.90;;
57337;SDS011;43173;50.980;18.204;2023-05-10T02:35:34;7.30;;;4.50;;
57337;SDS011;43173;50.980;18.204;2023-05-10T02:38:01;9.10;;;4.10;;
57337;SDS011;43173;50.980;18.204;2023-05-10T02:40:27;9.40;;;4.80;;
57337;SDS011;43173;50.980;18.204;2023-05-10T02:42:54;6.60;;;4.80;;
57337;SDS011;43173;50.980;18.204;2023-05-10T02:45:20;8.10;;;4.60;;
57337;SDS011;43173;50.980;18.204;2023-05-10T02:47:49;12.10;;;4.70;;
57337;SDS011;43173;50.980;18.204;2023-05-10T02:50:14;10.30;;;5.30;;
57337;SDS011;43173;50.980;18.204;2023-05-10T02:52:47;8.80;;;5.10;;
57337;SDS011;43173;50.980;18.204;2023-05-10T02:55:17;7.10;;;4.40;;
57337;SDS011;43173;50.980;18.204;2023-05-10T02:57:56;7.70;;;4.80;;
57337;SDS011;43173;50.980;18.204;2023-05-10T03:00:24;9.70;;;5.10;;
57337;SDS011;43173;50.980;18.204;2023-05-10T03:02:50;9.00;;;5.10;;
57337;SDS011;43173;50.980;18.204;2023-05-10T03:05:15;8.60;;;4.70;;
57337;SDS011;43173;50.980;18.204;2023-05-10T03:07:41;9.10;;;4.90;;
57337;SDS011;43173;50.980;18.204;2023-05-10T03:10:07;8.70;;;5.10;;
57337;SDS011;43173;50.980;18.204;2023-05-10T03:18:21;8.80;;;4.70;;
57337;SDS011;43173;50.980;18.204;2023-05-10T03:20:48;7.10;;;4.50;;
57337;SDS011;43173;50.980;18.204;2023-05-10T03:25:44;9.00;;;4.50;;
57337;SDS011;43173;50.980;18.204;2023-05-10T03:28:12;9.10;;;4.60;;
57337;SDS011;43173;50.980;18.204;2023-05-10T03:30:40;7.50;;;4.30;;
57337;SDS011;43173;50.980;18.204;2023-05-10T03:33:07;7.30;;;4.50;;
57337;SDS011;43173;50.980;18.204;2023-05-10T03:35:32;9.90;;;4.60;;
57337;SDS011;43173;50.980;18.204;2023-05-10T03:37:58;9.10;;;5.10;;
57337;SDS011;43173;50.980;18.204;2023-05-10T03:40:24;8.90;;;4.70;;
57337;SDS011;43173;50.980;18.204;2023-05-10T03:42:51;9.70;;;5.00;;
57337;SDS011;43173;50.980;18.204;2023-05-10T03:45:16;8.60;;;4.90;;
57337;SDS011;43173;50.980;18.204;2023-05-10T03:47:42;11.10;;;4.70;;
57337;SDS011;43173;50.980;18.204;2023-05-10T03:50:07;8.90;;;5.00;;
57337;SDS011;43173;50.980;18.204;2023-05-10T03:52:33;10.20;;;4.80;;
57337;SDS011;43173;50.980;18.204;2023-05-10T03:54:59;7.70;;;4.80;;
57337;SDS011;43173;50.980;18.204;2023-05-10T03:57:24;7.80;;;4.70;;
57337;SDS011;43173;50.980;18.204;2023-05-10T03:59:50;7.40;;;4.80;;
57337;SDS011;43173;50.980;18.204;2023-05-10T04:02:15;6.40;;;4.00;;
57337;SDS011;43173;50.980;18.204;2023-05-10T04:04:41;11.60;;;4.40;;
57337;SDS011;43173;50.980;18.204;2023-05-10T04:07:07;7.80;;;4.80;;
57337;SDS011;43173;50.980;18.204;2023-05-10T04:09:32;7.00;;;4.60;;
57337;SDS011;43173;50.980;18.204;2023-05-10T04:11:58;7.20;;;4.60;;
57337;SDS011;43173;50.980;18.204;2023-05-10T04:14:25;6.50;;;3.90;;
57337;SDS011;43173;50.980;18.204;2023-05-10T04:16:50;7.00;;;4.40;;
57337;SDS011;43173;50.980;18.204;2023-05-10T04:19:16;6.70;;;4.10;;
57337;SDS011;43173;50.980;18.204;2023-05-10T04:21:42;6.50;;;4.30;;
57337;SDS011;43173;50.980;18.204;2023-05-10T04:24:07;8.00;;;4.00;;
57337;SDS011;43173;50.980;18.204;2023-05-10T04:26:33;8.80;;;4.20;;
57337;SDS011;43173;50.980;18.204;2023-05-10T04:28:59;8.80;;;4.30;;
57337;SDS011;43173;50.980;18.204;2023-05-10T04:31:24;8.40;;;4.00;;
57337;SDS011;43173;50.980;18.204;2023-05-10T04:33:51;8.10;;;4.00;;
57337;SDS011;43173;50.980;18.204;2023-05-10T04:36:16;7.80;;;4.70;;
57337;SDS011;43173;50.980;18.204;2023-05-10T04:38:42;8.60;;;4.40;;
57337;SDS011;43173;50.980;18.204;2023-05-10T04:41:08;9.20;;;3.80;;
57337;SDS011;43173;50.980;18.204;2023-05-10T04:43:35;7.10;;;3.60;;
57337;SDS011;43173;50.980;18.204;2023-05-10T04:46:01;7.10;;;4.40;;
57337;SDS011;43173;50.980;18.204;2023-05-10T04:48:27;9.30;;;4.10;;
57337;SDS011;43173;50.980;18.204;2023-05-10T04:50:52;8.10;;;4.00;;
57337;SDS011;43173;50.980;18.204;2023-05-10T04:53:18;6.60;;;3.70;;
57337;SDS011;43173;50.980;18.204;2023-05-10T04:55:44;9.90;;;4.10;;
57337;SDS011;43173;50.980;18.204;2023-05-10T04:58:09;9.70;;;4.50;;
57337;SDS011;43173;50.980;18.204;2023-05-10T05:00:35;8.40;;;4.00;;
57337;SDS011;43173;50.980;18.204;2023-05-10T05:03:01;7.90;;;4.70;;
57337;SDS011;43173;50.980;18.204;2023-05-10T05:05:26;6.60;;;4.50;;
57337;SDS011;43173;50.980;18.204;2023-05-10T05:07:52;8.40;;;4.50;;
57337;SDS011;43173;50.980;18.204;2023-05-10T05:10:17;7.30;;;4.20;;
57337;SDS011;43173;50.980;18.204;2023-05-10T05:12:43;6.10;;;3.80;;
57337;SDS011;43173;50.980;18.204;2023-05-10T05:15:08;7.60;;;3.80;;
57337;SDS011;43173;50.980;18.204;2023-05-10T05:17:35;6.10;;;3.80;;
57337;SDS011;43173;50.980;18.204;2023-05-10T05:20:01;5.50;;;3.70;;
57337;SDS011;43173;50.980;18.204;2023-05-10T05:22:27;7.20;;;4.10;;
57337;SDS011;43173;50.980;18.204;2023-05-10T05:24:53;7.00;;;4.10;;
57337;SDS011;43173;50.980;18.204;2023-05-10T05:27:20;5.40;;;3.60;;
57337;SDS011;43173;50.980;18.204;2023-05-10T05:29:55;5.40;;;3.10;;
57337;SDS011;43173;50.980;18.204;2023-05-10T05:32:21;4.50;;;3.50;;
57337;SDS011;43173;50.980;18.204;2023-05-10T05:34:48;5.90;;;3.90;;
57337;SDS011;43173;50.980;18.204;2023-05-10T05:37:17;7.10;;;3.80;;
57337;SDS011;43173;50.980;18.204;2023-05-10T05:39:43;5.90;;;3.40;;
57337;SDS011;43173;50.980;18.204;2023-05-10T05:42:10;6.60;;;3.60;;
57337;SDS011;43173;50.980;18.204;2023-05-10T05:44:36;5.60;;;3.60;;
57337;SDS011;43173;50.980;18.204;2023-05-10T05:47:01;7.90;;;3.80;;
57337;SDS011;43173;50.980;18.204;2023-05-10T05:49:27;4.90;;;3.40;;
57337;SDS011;43173;50.980;18.204;2023-05-10T05:51:53;6.60;;;3.60;;
57337;SDS011;43173;50.980;18.204;2023-05-10T05:54:18;5.20;;;3.30;;
57337;SDS011;43173;50.980;18.204;2023-05-10T05:56:44;7.50;;;3.60;;
57337;SDS011;43173;50.980;18.204;2023-05-10T05:59:10;5.80;;;3.50;;
57337;SDS011;43173;50.980;18.204;2023-05-10T06:01:36;4.30;;;3.30;;
57337;SDS011;43173;50.980;18.204;2023-05-10T06:04:02;6.70;;;3.50;;
57337;SDS011;43173;50.980;18.204;2023-05-10T06:06:27;7.30;;;3.40;;
57337;SDS011;43173;50.980;18.204;2023-05-10T06:08:53;6.10;;;3.40;;
57337;SDS011;43173;50.980;18.204;2023-05-10T06:11:19;4.70;;;3.20;;
57337;SDS011;43173;50.980;18.204;2023-05-10T06:13:46;4.80;;;3.10;;
57337;SDS011;43173;50.980;18.204;2023-05-10T06:16:12;6.70;;;3.50;;
57337;SDS011;43173;50.980;18.204;2023-05-10T06:18:38;6.90;;;3.40;;
57337;SDS011;43173;50.980;18.204;2023-05-10T06:21:04;6.00;;;3.20;;
57337;SDS011;43173;50.980;18.204;2023-05-10T06:23:30;4.90;;;2.90;;
57337;SDS011;43173;50.980;18.204;2023-05-10T06:25:55;5.20;;;3.50;;
57337;SDS011;43173;50.980;18.204;2023-05-10T06:28:21;7.10;;;3.60;;
57337;SDS011;43173;50.980;18.204;2023-05-10T06:30:46;4.50;;;3.20;;
57337;SDS011;43173;50.980;18.204;2023-05-10T06:33:13;6.20;;;3.20;;
57337;SDS011;43173;50.980;18.204;2023-05-10T06:35:38;4.50;;;2.90;;
57337;SDS011;43173;50.980;18.204;2023-05-10T06:38:04;5.60;;;3.20;;
57337;SDS011;43173;50.980;18.204;2023-05-10T06:40:30;4.30;;;2.80;;
57337;SDS011;43173;50.980;18.204;2023-05-10T06:42:55;5.10;;;2.80;;
57337;SDS011;43173;50.980;18.204;2023-05-10T06:45:21;4.90;;;3.00;;
57337;SDS011;43173;50.980;18.204;2023-05-10T06:47:47;4.70;;;3.00;;
57337;SDS011;43173;50.980;18.204;2023-05-10T06:50:12;4.80;;;2.60;;
57337;SDS011;43173;50.980;18.204;2023-05-10T06:52:38;5.30;;;3.30;;
57337;SDS011;43173;50.980;18.204;2023-05-10T06:55:04;4.40;;;2.80;;
57337;SDS011;43173;50.980;18.204;2023-05-10T06:57:31;4.10;;;2.60;;
57337;SDS011;43173;50.980;18.204;2023-05-10T07:00:00;6.30;;;2.90;;
57337;SDS011;43173;50.980;18.204;2023-05-10T07:02:26;5.50;;;3.00;;
57337;SDS011;43173;50.980;18.204;2023-05-10T07:04:52;5.30;;;2.50;;
57337;SDS011;43173;50.980;18.204;2023-05-10T07:07:18;5.30;;;3.00;;
57337;SDS011;43173;50.980;18.204;2023-05-10T07:09:44;5.60;;;3.00;;
57337;SDS011;43173;50.980;18.204;2023-05-10T07:12:10;5.70;;;3.20;;
57337;SDS011;43173;50.980;18.204;2023-05-10T07:14:35;5.90;;;2.60;;
57337;SDS011;43173;50.980;18.204;2023-05-10T07:17:01;6.50;;;3.20;;
57337;SDS011;43173;50.980;18.204;2023-05-10T07:19:26;5.40;;;3.00;;
57337;SDS011;43173;50.980;18.204;2023-05-10T07:21:52;5.00;;;2.60;;
57337;SDS011;43173;50.980;18.204;2023-05-10T07:24:18;3.10;;;2.20;;
57337;SDS011;43173;50.980;18.204;2023-05-10T07:26:43;4.20;;;2.60;;
57337;SDS011;43173;50.980;18.204;2023-05-10T07:29:09;5.50;;;3.00;;
57337;SDS011;43173;50.980;18.204;2023-05-10T07:31:35;5.80;;;3.10;;
57337;SDS011;43173;50.980;18.204;2023-05-10T07:34:00;6.80;;;2.90;;
57337;SDS011;43173;50.980;18.204;2023-05-10T07:36:26;4.80;;;2.60;;
57337;SDS011;43173;50.980;18.204;2023-05-10T07:38:53;6.70;;;2.80;;
57337;SDS011;43173;50.980;18.204;2023-05-10T07:41:18;4.50;;;2.60;;
57337;SDS011;43173;50.980;18.204;2023-05-10T07:43:44;6.40;;;2.90;;
57337;SDS011;43173;50.980;18.204;2023-05-10T07:46:09;4.80;;;2.80;;
57337;SDS011;43173;50.980;18.204;2023-05-10T07:48:37;6.60;;;2.80;;
57337;SDS011;43173;50.980;18.204;2023-05-10T07:51:02;6.30;;;2.90;;
57337;SDS011;43173;50.980;18.204;2023-05-10T07:53:28;3.90;;;2.40;;
57337;SDS011;43173;50.980;18.204;2023-05-10T07:55:54;4.70;;;2.90;;
57337;SDS011;43173;50.980;18.204;2023-05-10T07:58:23;6.60;;;3.00;;
57337;SDS011;43173;50.980;18.204;2023-05-10T08:00:50;5.10;;;2.60;;
57337;SDS011;43173;50.980;18.204;2023-05-10T08:03:15;5.20;;;2.30;;
57337;SDS011;43173;50.980;18.204;2023-05-10T08:05:41;4.60;;;2.50;;
57337;SDS011;43173;50.980;18.204;2023-05-10T08:08:07;5.50;;;2.50;;
57337;SDS011;43173;50.980;18.204;2023-05-10T08:10:33;4.70;;;2.30;;
57337;SDS011;43173;50.980;18.204;2023-05-10T08:12:58;4.40;;;2.40;;
57337;SDS011;43173;50.980;18.204;2023-05-10T08:15:24;7.40;;;2.60;;
57337;SDS011;43173;50.980;18.204;2023-05-10T08:17:53;4.80;;;2.40;;
57337;SDS011;43173;50.980;18.204;2023-05-10T08:20:19;3.00;;;2.20;;
57337;SDS011;43173;50.980;18.204;2023-05-10T08:22:45;7.80;;;2.40;;
57337;SDS011;43173;50.980;18.204;2023-05-10T08:25:13;6.60;;;2.40;;
57337;SDS011;43173;50.980;18.204;2023-05-10T08:27:38;3.80;;;2.30;;
57337;SDS011;43173;50.980;18.204;2023-05-10T08:30:04;6.80;;;3.30;;
57337;SDS011;43173;50.980;18.204;2023-05-10T08:32:31;4.80;;;2.80;;
57337;SDS011;43173;50.980;18.204;2023-05-10T08:34:56;4.90;;;2.70;;
57337;SDS011;43173;50.980;18.204;2023-05-10T08:37:25;3.80;;;2.40;;
57337;SDS011;43173;50.980;18.204;2023-05-10T08:39:50;4.60;;;2.30;;
57337;SDS011;43173;50.980;18.204;2023-05-10T08:42:16;5.00;;;2.80;;
57337;SDS011;43173;50.980;18.204;2023-05-10T08:44:45;4.90;;;2.40;;
57337;SDS011;43173;50.980;18.204;2023-05-10T08:47:13;2.90;;;2.10;;
57337;SDS011;43173;50.980;18.204;2023-05-10T08:49:40;6.70;;;4.40;;
57337;SDS011;43173;50.980;18.204;2023-05-10T08:52:07;6.30;;;2.70;;
57337;SDS011;43173;50.980;18.204;2023-05-10T08:54:33;3.90;;;2.60;;
57337;SDS011;43173;50.980;18.204;2023-05-10T08:56:59;4.10;;;2.50;;
57337;SDS011;43173;50.980;18.204;2023-05-10T08:59:26;7.10;;;2.40;;
57337;SDS011;43173;50.980;18.204;2023-05-10T09:01:52;23.30;;;4.40;;
57337;SDS011;43173;50.980;18.204;2023-05-10T09:04:19;19.40;;;4.00;;
57337;SDS011;43173;50.980;18.204;2023-05-10T09:06:45;4.90;;;2.70;;
57337;SDS011;43173;50.980;18.204;2023-05-10T09:09:10;4.20;;;2.40;;
57337;SDS011;43173;50.980;18.204;2023-05-10T09:11:37;14.40;;;6.10;;
57337;SDS011;43173;50.980;18.204;2023-05-10T09:14:02;5.00;;;2.80;;
57337;SDS011;43173;50.980;18.204;2023-05-10T09:16:28;7.30;;;2.50;;
57337;SDS011;43173;50.980;18.204;2023-05-10T09:18:54;7.70;;;2.40;;
57337;SDS011;43173;50.980;18.204;2023-05-10T09:21:19;8.20;;;3.80;;
57337;SDS011;43173;50.980;18.204;2023-05-10T09:23:46;4.80;;;2.80;;
57337;SDS011;43173;50.980;18.204;2023-05-10T09:26:13;7.60;;;3.00;;
57337;SDS011;43173;50.980;18.204;2023-05-10T09:31:21;4.80;;;2.50;;
57337;SDS011;43173;50.980;18.204;2023-05-10T09:33:48;7.60;;;2.80;;
57337;SDS011;43173;50.980;18.204;2023-05-10T09:36:14;6.00;;;3.10;;
57337;SDS011;43173;50.980;18.204;2023-05-10T09:38:47;4.60;;;2.60;;
57337;SDS011;43173;50.980;18.204;2023-05-10T09:41:16;5.20;;;2.30;;
57337;SDS011;43173;50.980;18.204;2023-05-10T09:43:43;4.90;;;2.50;;
57337;SDS011;43173;50.980;18.204;2023-05-10T09:46:09;4.40;;;2.80;;
57337;SDS011;43173;50.980;18.204;2023-05-10T09:48:44;4.40;;;2.40;;
57337;SDS011;43173;50.980;18.204;2023-05-10T09:51:15;4.30;;;2.90;;
57337;SDS011;43173;50.980;18.204;2023-05-10T09:53:44;7.50;;;2.60;;
57337;SDS011;43173;50.980;18.204;2023-05-10T09:56:11;3.60;;;2.40;;
57337;SDS011;43173;50.980;18.204;2023-05-10T09:58:37;3.30;;;2.50;;
57337;SDS011;43173;50.980;18.204;2023-05-10T10:01:10;3.50;;;2.40;;
57337;SDS011;43173;50.980;18.204;2023-05-10T10:03:41;3.40;;;2.60;;
57337;SDS011;43173;50.980;18.204;2023-05-10T10:06:08;5.00;;;2.50;;
57337;SDS011;43173;50.980;18.204;2023-05-10T10:08:34;4.40;;;2.80;;
57337;SDS011;43173;50.980;18.204;2023-05-10T10:10:59;4.80;;;2.70;;
57337;SDS011;43173;50.980;18.204;2023-05-10T10:13:25;5.80;;;2.90;;
57337;SDS011;43173;50.980;18.204;2023-05-10T10:15:52;3.50;;;2.20;;
57337;SDS011;43173;50.980;18.204;2023-05-10T10:18:18;3.80;;;2.50;;
57337;SDS011;43173;50.980;18.204;2023-05-10T10:20:44;5.80;;;2.90;;
57337;SDS011;43173;50.980;18.204;2023-05-10T10:23:10;6.40;;;2.80;;
57337;SDS011;43173;50.980;18.204;2023-05-10T10:25:36;2.20;;;1.80;;
57337;SDS011;43173;50.980;18.204;2023-05-10T10:31:02;4.40;;;2.30;;
57337;SDS011;43173;50.980;18.204;2023-05-10T10:36:45;3.70;;;2.60;;
57337;SDS011;43173;50.980;18.204;2023-05-10T10:39:11;3.70;;;2.30;;
57337;SDS011;43173;50.980;18.204;2023-05-10T10:41:38;4.60;;;2.10;;
57337;SDS011;43173;50.980;18.204;2023-05-10T10:54:58;4.70;;;2.30;;
57337;SDS011;43173;50.980;18.204;2023-05-10T10:58:12;5.80;;;2.90;;
57337;SDS011;43173;50.980;18.204;2023-05-10T11:00:26;3.90;;;2.20;;
57337;SDS011;43173;50.980;18.204;2023-05-10T11:02:57;4.80;;;2.60;;
57337;SDS011;43173;50.980;18.204;2023-05-10T11:05:36;4.20;;;2.30;;
57337;SDS011;43173;50.980;18.204;2023-05-10T11:21:19;4.20;;;2.60;;
57337;SDS011;43173;50.980;18.204;2023-05-10T11:23:49;5.50;;;3.10;;
57337;SDS011;43173;50.980;18.204;2023-05-10T11:28:46;5.10;;;2.10;;
57337;SDS011;43173;50.980;18.204;2023-05-10T11:31:13;3.60;;;2.40;;
57337;SDS011;43173;50.980;18.204;2023-05-10T11:33:47;2.80;;;2.00;;
57337;SDS011;43173;50.980;18.204;2023-05-10T11:36:14;3.50;;;2.30;;
57337;SDS011;43173;50.980;18.204;2023-05-10T11:38:40;5.50;;;2.00;;
57337;SDS011;43173;50.980;18.204;2023-05-10T11:41:09;3.20;;;2.20;;
57337;SDS011;43173;50.980;18.204;2023-05-10T11:43:37;2.50;;;2.20;;
57337;SDS011;43173;50.980;18.204;2023-05-10T11:46:06;6.20;;;2.60;;
57337;SDS011;43173;50.980;18.204;2023-05-10T11:48:33;5.20;;;2.40;;
57337;SDS011;43173;50.980;18.204;2023-05-10T11:51:00;3.90;;;2.70;;
57337;SDS011;43173;50.980;18.204;2023-05-10T11:53:27;3.30;;;2.30;;
57337;SDS011;43173;50.980;18.204;2023-05-10T11:56:03;4.80;;;2.50;;
57337;SDS011;43173;50.980;18.204;2023-05-10T11:58:31;5.90;;;2.50;;
57337;SDS011;43173;50.980;18.204;2023-05-10T12:00:58;4.90;;;2.20;;
57337;SDS011;43173;50.980;18.204;2023-05-10T12:03:25;3.30;;;2.10;;
57337;SDS011;43173;50.980;18.204;2023-05-10T12:05:51;5.30;;;2.30;;
57337;SDS011;43173;50.980;18.204;2023-05-10T12:08:20;4.00;;;2.00;;
57337;SDS011;43173;50.980;18.204;2023-05-10T12:10:47;4.00;;;2.10;;
57337;SDS011;43173;50.980;18.204;2023-05-10T12:13:13;3.80;;;2.10;;
57337;SDS011;43173;50.980;18.204;2023-05-10T12:15:39;2.40;;;2.10;;
57337;SDS011;43173;50.980;18.204;2023-05-10T12:18:05;5.10;;;2.10;;
57337;SDS011;43173;50.980;18.204;2023-05-10T12:20:31;5.00;;;2.10;;
57337;SDS011;43173;50.980;18.204;2023-05-10T12:22:57;2.70;;;2.20;;
57337;SDS011;43173;50.980;18.204;2023-05-10T12:25:32;3.00;;;2.30;;
57337;SDS011;43173;50.980;18.204;2023-05-10T12:27:59;3.70;;;2.20;;
57337;SDS011;43173;50.980;18.204;2023-05-10T12:30:27;3.10;;;2.10;;
57337;SDS011;43173;50.980;18.204;2023-05-10T12:32:59;3.00;;;2.10;;
57337;SDS011;43173;50.980;18.204;2023-05-10T12:35:25;3.60;;;2.10;;
57337;SDS011;43173;50.980;18.204;2023-05-10T12:37:51;4.30;;;2.00;;
57337;SDS011;43173;50.980;18.204;2023-05-10T12:40:17;3.20;;;2.10;;
57337;SDS011;43173;50.980;18.204;2023-05-10T12:42:42;3.00;;;2.10;;
57337;SDS011;43173;50.980;18.204;2023-05-10T12:45:10;5.00;;;2.20;;
57337;SDS011;43173;50.980;18.204;2023-05-10T12:47:36;4.80;;;2.20;;
57337;SDS011;43173;50.980;18.204;2023-05-10T12:50:02;5.80;;;2.00;;
57337;SDS011;43173;50.980;18.204;2023-05-10T12:52:29;2.70;;;1.90;;
57337;SDS011;43173;50.980;18.204;2023-05-10T12:54:55;4.40;;;2.20;;
57337;SDS011;43173;50.980;18.204;2023-05-10T12:57:21;4.40;;;2.00;;
57337;SDS011;43173;50.980;18.204;2023-05-10T12:59:47;5.50;;;2.00;;
57337;SDS011;43173;50.980;18.204;2023-05-10T13:02:12;4.40;;;1.90;;
57337;SDS011;43173;50.980;18.204;2023-05-10T13:04:40;5.10;;;2.20;;
57337;SDS011;43173;50.980;18.204;2023-05-10T13:07:07;3.40;;;2.10;;
57337;SDS011;43173;50.980;18.204;2023-05-10T13:09:32;4.90;;;2.30;;
57337;SDS011;43173;50.980;18.204;2023-05-10T13:11:58;3.10;;;2.10;;
57337;SDS011;43173;50.980;18.204;2023-05-10T13:14:24;6.10;;;2.00;;
57337;SDS011;43173;50.980;18.204;2023-05-10T13:16:50;5.40;;;2.00;;
57337;SDS011;43173;50.980;18.204;2023-05-10T13:19:16;4.00;;;2.10;;
57337;SDS011;43173;50.980;18.204;2023-05-10T13:21:42;4.20;;;2.20;;
57337;SDS011;43173;50.980;18.204;2023-05-10T13:24:09;2.90;;;1.90;;
57337;SDS011;43173;50.980;18.204;2023-05-10T13:26:36;4.90;;;2.00;;
57337;SDS011;43173;50.980;18.204;2023-05-10T13:29:02;3.80;;;2.30;;
57337;SDS011;43173;50.980;18.204;2023-05-10T13:31:28;3.80;;;2.00;;
57337;SDS011;43173;50.980;18.204;2023-05-10T13:33:54;5.20;;;2.20;;
57337;SDS011;43173;50.980;18.204;2023-05-10T13:36:20;3.80;;;2.20;;
57337;SDS011;43173;50.980;18.204;2023-05-10T13:38:45;5.30;;;2.90;;
57337;SDS011;43173;50.980;18.204;2023-05-10T13:41:11;5.70;;;2.40;;
57337;SDS011;43173;50.980;18.204;2023-05-10T13:43:37;4.70;;;2.30;;
57337;SDS011;43173;50.980;18.204;2023-05-10T13:46:02;4.40;;;2.20;;
57337;SDS011;43173;50.980;18.204;2023-05-10T13:48:28;7.30;;;2.60;;
57337;SDS011;43173;50.980;18.204;2023-05-10T13:50:54;3.40;;;2.20;;
57337;SDS011;43173;50.980;18.204;2023-05-10T13:53:20;3.30;;;2.10;;
57337;SDS011;43173;50.980;18.204;2023-05-10T13:58:59;4.70;;;2.30;;
57337;SDS011;43173;50.980;18.204;2023-05-10T14:01:25;4.40;;;2.40;;
57337;SDS011;43173;50.980;18.204;2023-05-10T14:03:51;3.10;;;2.20;;
57337;SDS011;43173;50.980;18.204;2023-05-10T14:06:17;3.70;;;2.60;;
57337;SDS011;43173;50.980;18.204;2023-05-10T14:08:43;4.10;;;2.00;;
57337;SDS011;43173;50.980;18.204;2023-05-10T14:11:08;4.00;;;2.20;;
57337;SDS011;43173;50.980;18.204;2023-05-10T14:13:34;3.00;;;1.90;;
57337;SDS011;43173;50.980;18.204;2023-05-10T14:16:00;4.00;;;2.20;;
57337;SDS011;43173;50.980;18.204;2023-05-10T14:18:26;3.90;;;2.20;;
57337;SDS011;43173;50.980;18.204;2023-05-10T14:20:52;5.40;;;2.20;;
57337;SDS011;43173;50.980;18.204;2023-05-10T14:23:18;3.70;;;2.00;;
57337;SDS011;43173;50.980;18.204;2023-05-10T14:25:51;4.50;;;2.50;;
57337;SDS011;43173;50.980;18.204;2023-05-10T14:28:18;2.30;;;2.00;;
57337;SDS011;43173;50.980;18.204;2023-05-10T14:30:45;4.50;;;2.10;;
57337;SDS011;43173;50.980;18.204;2023-05-10T14:33:11;3.70;;;1.80;;
57337;SDS011;43173;50.980;18.204;2023-05-10T14:35:37;3.20;;;2.00;;
57337;SDS011;43173;50.980;18.204;2023-05-10T14:38:03;3.70;;;1.90;;
57337;SDS011;43173;50.980;18.204;2023-05-10T14:40:29;4.30;;;2.00;;
57337;SDS011;43173;50.980;18.204;2023-05-10T14:42:55;3.40;;;2.30;;
57337;SDS011;43173;50.980;18.204;2023-05-10T14:45:22;3.30;;;2.00;;
57337;SDS011;43173;50.980;18.204;2023-05-10T14:47:48;3.80;;;2.00;;
57337;SDS011;43173;50.980;18.204;2023-05-10T14:50:15;3.10;;;1.90;;
57337;SDS011;43173;50.980;18.204;2023-05-10T14:55:54;5.50;;;2.00;;
57337;SDS011;43173;50.980;18.204;2023-05-10T14:58:20;4.20;;;2.20;;
57337;SDS011;43173;50.980;18.204;2023-05-10T15:00:45;4.70;;;2.30;;
57337;SDS011;43173;50.980;18.204;2023-05-10T15:03:11;4.70;;;2.30;;
57337;SDS011;43173;50.980;18.204;2023-05-10T15:05:37;5.40;;;2.40;;
57337;SDS011;43173;50.980;18.204;2023-05-10T15:08:03;5.20;;;2.40;;
57337;SDS011;43173;50.980;18.204;2023-05-10T15:10:31;6.40;;;3.30;;
57337;SDS011;43173;50.980;18.204;2023-05-10T15:12:57;3.50;;;2.40;;
57337;SDS011;43173;50.980;18.204;2023-05-10T15:15:24;5.40;;;2.80;;
57337;SDS011;43173;50.980;18.204;2023-05-10T15:17:50;7.40;;;2.10;;
57337;SDS011;43173;50.980;18.204;2023-05-10T15:20:15;6.30;;;2.30;;
57337;SDS011;43173;50.980;18.204;2023-05-10T15:22:41;2.80;;;2.20;;
57337;SDS011;43173;50.980;18.204;2023-05-10T15:25:07;6.30;;;2.40;;
57337;SDS011;43173;50.980;18.204;2023-05-10T15:27:32;5.40;;;2.50;;
57337;SDS011;43173;50.980;18.204;2023-05-10T15:29:58;3.10;;;2.30;;
57337;SDS011;43173;50.980;18.204;2023-05-10T15:32:24;3.70;;;2.40;;
57337;SDS011;43173;50.980;18.204;2023-05-10T15:34:50;4.30;;;2.50;;
57337;SDS011;43173;50.980;18.204;2023-05-10T15:37:16;4.80;;;2.40;;
57337;SDS011;43173;50.980;18.204;2023-05-10T15:39:41;5.10;;;2.40;;
57337;SDS011;43173;50.980;18.204;2023-05-10T15:42:07;5.70;;;2.60;;